createdAt,value
2016-07-04T00:00:50.166Z,0
2016-07-04T00:01:50.148Z,0
2016-07-04T00:02:50.195Z,0
2016-07-04T00:03:50.167Z,0
2016-07-04T00:04:50.183Z,0
2016-07-04T00:05:50.222Z,0
2016-07-04T00:06:50.207Z,0
2016-07-04T00:07:50.207Z,0
2016-07-04T00:08:50.237Z,0
2016-07-04T00:09:50.226Z,0
2016-07-04T00:10:50.235Z,0
2016-07-04T00:11:50.274Z,0
2016-07-04T00:12:50.283Z,0
2016-07-04T00:13:50.303Z,0
2016-07-04T00:14:50.289Z,0
2016-07-04T00:15:50.338Z,0
2016-07-04T00:16:50.320Z,0
2016-07-04T00:17:50.322Z,0
2016-07-04T00:18:50.304Z,0
2016-07-04T00:19:50.330Z,0
2016-07-04T00:20:50.333Z,0
2016-07-04T00:21:50.384Z,0
2016-07-04T00:22:50.368Z,0
2016-07-04T00:23:50.362Z,0
2016-07-04T00:24:50.379Z,0
2016-07-04T00:25:50.443Z,0
2016-07-04T00:26:50.397Z,0
2016-07-04T00:27:50.409Z,0
2016-07-04T00:28:50.406Z,0
2016-07-04T00:29:50.432Z,0
2016-07-04T00:30:50.423Z,0
2016-07-04T00:31:50.440Z,0
2016-07-04T00:32:51.075Z,0
2016-07-04T00:33:50.448Z,0
2016-07-04T00:34:50.469Z,0
2016-07-04T00:35:50.486Z,0
2016-07-04T00:36:50.487Z,0
2016-07-04T00:37:50.498Z,0
2016-07-04T00:38:50.511Z,0
2016-07-04T00:39:50.531Z,0
2016-07-04T00:40:50.501Z,0
2016-07-04T00:41:50.524Z,0
2016-07-04T00:42:50.532Z,0
2016-07-04T00:43:50.565Z,0
2016-07-04T00:44:50.543Z,0
2016-07-04T00:45:50.534Z,0
2016-07-04T00:46:50.579Z,0
2016-07-04T00:47:50.594Z,0
2016-07-04T00:48:50.592Z,0
2016-07-04T00:49:50.621Z,0
2016-07-04T00:50:50.627Z,0
2016-07-04T00:51:50.641Z,0
2016-07-04T00:52:50.636Z,0
2016-07-04T00:53:50.635Z,0
2016-07-04T00:54:50.640Z,0
2016-07-04T00:55:50.653Z,0
2016-07-04T00:56:50.670Z,0
2016-07-04T00:57:50.685Z,0
2016-07-04T00:58:50.672Z,0
2016-07-04T00:59:50.701Z,0
2016-07-04T01:00:50.701Z,0
2016-07-04T01:01:50.731Z,0
2016-07-04T01:02:50.716Z,0
2016-07-04T01:03:50.717Z,0
2016-07-04T01:04:50.738Z,0
2016-07-04T01:05:51.101Z,0
2016-07-04T01:06:50.805Z,0
2016-07-04T01:07:51.076Z,0
2016-07-04T01:08:50.767Z,0
2016-07-04T01:09:51.188Z,0
2016-07-04T01:10:50.803Z,0
2016-07-04T01:11:51.427Z,0
2016-07-04T01:12:50.808Z,0
2016-07-04T01:13:50.830Z,0
2016-07-04T01:14:50.822Z,0
2016-07-04T01:15:50.839Z,0
2016-07-04T01:16:50.840Z,0
2016-07-04T01:17:50.853Z,0
2016-07-04T01:18:50.850Z,0
2016-07-04T01:19:50.839Z,0
2016-07-04T01:20:50.882Z,0
2016-07-04T01:21:50.881Z,0
2016-07-04T01:22:50.901Z,0
2016-07-04T01:23:50.932Z,0
2016-07-04T01:24:50.911Z,0
2016-07-04T01:25:50.972Z,0
2016-07-04T01:26:50.928Z,0
2016-07-04T01:27:50.960Z,0
2016-07-04T01:28:50.962Z,0
2016-07-04T01:29:50.989Z,0
2016-07-04T01:30:50.950Z,0
2016-07-04T01:31:50.985Z,0
2016-07-04T01:32:50.971Z,0
2016-07-04T01:33:51.025Z,0
2016-07-04T01:34:50.999Z,0
2016-07-04T01:35:51.024Z,0
2016-07-04T01:36:51.031Z,0
2016-07-04T01:37:51.071Z,0
2016-07-04T01:38:51.023Z,0
2016-07-04T01:39:51.046Z,0
2016-07-04T01:40:51.043Z,0
2016-07-04T01:41:51.095Z,0
2016-07-04T01:42:51.067Z,0
2016-07-04T01:43:51.080Z,0
2016-07-04T01:44:51.091Z,0
2016-07-04T01:45:51.082Z,0
2016-07-04T01:46:51.108Z,0
2016-07-04T01:47:51.103Z,0
2016-07-04T01:48:51.106Z,0
2016-07-04T01:49:51.134Z,0
2016-07-04T01:50:51.156Z,0
2016-07-04T01:51:51.171Z,0
2016-07-04T01:52:51.141Z,0
2016-07-04T01:53:51.177Z,0
2016-07-04T01:54:51.180Z,0
2016-07-04T01:55:51.171Z,0
2016-07-04T01:56:51.174Z,0
2016-07-04T01:57:51.170Z,0
2016-07-04T01:58:51.169Z,0
2016-07-04T01:59:51.200Z,0
2016-07-04T02:00:51.240Z,0
2016-07-04T02:01:51.212Z,0
2016-07-04T02:02:51.264Z,0
2016-07-04T02:03:51.254Z,0
2016-07-04T02:04:51.262Z,0
2016-07-04T02:05:51.245Z,0
2016-07-04T02:06:51.270Z,0
2016-07-04T02:07:51.289Z,0
2016-07-04T02:08:51.950Z,0
2016-07-04T02:09:51.733Z,0
2016-07-04T02:10:51.584Z,0
2016-07-04T02:11:51.778Z,0
2016-07-04T02:12:51.353Z,0
2016-07-04T02:13:51.607Z,0
2016-07-04T02:14:51.606Z,0
2016-07-04T02:15:51.350Z,0
2016-07-04T02:16:51.397Z,0
2016-07-04T02:17:51.383Z,0
2016-07-04T02:18:51.358Z,0
2016-07-04T02:19:51.403Z,0
2016-07-04T02:20:51.406Z,0
2016-07-04T02:21:51.404Z,0
2016-07-04T02:22:51.420Z,0
2016-07-04T02:23:52.028Z,0
2016-07-04T02:24:51.426Z,0
2016-07-04T02:25:51.496Z,0
2016-07-04T02:26:51.447Z,0
2016-07-04T02:27:51.475Z,0
2016-07-04T02:28:51.473Z,0
2016-07-04T02:29:51.458Z,0
2016-07-04T02:30:51.503Z,0
2016-07-04T02:31:51.532Z,0
2016-07-04T02:32:51.487Z,0
2016-07-04T02:33:51.518Z,0
2016-07-04T02:34:51.523Z,0
2016-07-04T02:35:51.542Z,0
2016-07-04T02:36:51.533Z,0
2016-07-04T02:37:51.544Z,0
2016-07-04T02:38:51.558Z,0
2016-07-04T02:39:51.560Z,0
2016-07-04T02:40:51.557Z,0
2016-07-04T02:41:51.559Z,0
2016-07-04T02:42:51.616Z,0
2016-07-04T02:43:51.568Z,0
2016-07-04T02:44:51.587Z,0
2016-07-04T02:45:51.601Z,0
2016-07-04T02:46:51.645Z,0
2016-07-04T02:47:51.618Z,0
2016-07-04T02:48:51.621Z,0
2016-07-04T02:49:51.658Z,0
2016-07-04T02:50:51.640Z,0
2016-07-04T02:51:51.685Z,0
2016-07-04T02:52:51.651Z,0
2016-07-04T02:53:51.726Z,0
2016-07-04T02:54:51.704Z,0
2016-07-04T02:55:51.718Z,0
2016-07-04T02:56:51.724Z,0
2016-07-04T02:57:51.726Z,0
2016-07-04T02:58:51.698Z,0
2016-07-04T02:59:51.756Z,0
2016-07-04T03:00:51.762Z,0
2016-07-04T03:01:51.739Z,0
2016-07-04T03:02:51.738Z,0
2016-07-04T03:03:51.789Z,0
2016-07-04T03:04:51.795Z,0
2016-07-04T03:05:51.782Z,0
2016-07-04T03:06:51.816Z,0
2016-07-04T03:07:51.796Z,0
2016-07-04T03:08:51.807Z,0
2016-07-04T03:09:51.840Z,0
2016-07-04T03:10:51.831Z,0
2016-07-04T03:11:51.840Z,0
2016-07-04T03:12:51.849Z,0
2016-07-04T03:13:51.884Z,0
2016-07-04T03:14:51.869Z,0
2016-07-04T03:15:51.878Z,0
2016-07-04T03:16:51.857Z,0
2016-07-04T03:17:51.869Z,0
2016-07-04T03:18:51.859Z,0
2016-07-04T03:19:51.919Z,0
2016-07-04T03:20:51.922Z,0
2016-07-04T03:21:51.903Z,0
2016-07-04T03:22:51.926Z,0
2016-07-04T03:23:51.954Z,0
2016-07-04T03:24:51.943Z,0
2016-07-04T03:25:51.975Z,0
2016-07-04T03:26:51.956Z,0
2016-07-04T03:27:51.988Z,0
2016-07-04T03:28:51.986Z,0
2016-07-04T03:29:51.989Z,0
2016-07-04T03:30:52.009Z,0
2016-07-04T03:31:52.037Z,0
2016-07-04T03:32:52.036Z,0
2016-07-04T03:33:52.048Z,0
2016-07-04T03:34:52.063Z,0
2016-07-04T03:35:52.053Z,0
2016-07-04T03:36:52.041Z,0
2016-07-04T03:37:52.057Z,0
2016-07-04T03:38:52.063Z,0
2016-07-04T03:39:52.065Z,0
2016-07-04T03:40:52.118Z,0
2016-07-04T03:41:52.117Z,0
2016-07-04T03:42:52.105Z,0
2016-07-04T03:43:52.090Z,0
2016-07-04T03:44:52.124Z,0
2016-07-04T03:45:52.089Z,0
2016-07-04T03:46:52.139Z,0
2016-07-04T03:47:52.141Z,0
2016-07-04T03:48:52.796Z,0
2016-07-04T03:49:52.151Z,0
2016-07-04T03:50:52.149Z,0
2016-07-04T03:51:52.201Z,0
2016-07-04T03:52:52.198Z,0
2016-07-04T03:53:52.219Z,0
2016-07-04T03:54:52.191Z,0
2016-07-04T03:55:52.208Z,0
2016-07-04T03:56:52.211Z,0
2016-07-04T03:57:52.252Z,0
2016-07-04T03:58:52.215Z,0
2016-07-04T03:59:52.251Z,0
2016-07-04T04:00:52.290Z,0
2016-07-04T04:01:52.271Z,0
2016-07-04T04:02:52.281Z,0
2016-07-04T04:03:52.282Z,0
2016-07-04T04:04:52.311Z,0
2016-07-04T04:05:52.310Z,0
2016-07-04T04:06:52.296Z,0
2016-07-04T04:07:52.338Z,0
2016-07-04T04:08:52.324Z,0
2016-07-04T04:09:52.321Z,0
2016-07-04T04:10:52.524Z,0
2016-07-04T04:11:52.347Z,0
2016-07-04T04:12:52.377Z,0
2016-07-04T04:13:52.383Z,0
2016-07-04T04:14:52.386Z,0
2016-07-04T04:15:52.382Z,0
2016-07-04T04:16:52.402Z,0
2016-07-04T04:17:52.418Z,0
2016-07-04T04:18:52.424Z,0
2016-07-04T04:19:52.447Z,0
2016-07-04T04:20:52.459Z,0
2016-07-04T04:21:52.471Z,0
2016-07-04T04:22:52.437Z,0
2016-07-04T04:23:52.476Z,0
2016-07-04T04:24:52.472Z,0
2016-07-04T04:25:52.500Z,0
2016-07-04T04:26:52.471Z,0
2016-07-04T04:27:52.502Z,0
2016-07-04T04:28:52.528Z,0
2016-07-04T04:29:52.513Z,0
2016-07-04T04:30:52.520Z,0
2016-07-04T04:31:52.541Z,5
2016-07-04T04:32:52.584Z,5
2016-07-04T04:33:52.572Z,5
2016-07-04T04:34:52.598Z,5
2016-07-04T04:35:52.556Z,5
2016-07-04T04:36:52.557Z,5
2016-07-04T04:37:52.585Z,5
2016-07-04T04:38:52.608Z,5
2016-07-04T04:39:52.617Z,5
2016-07-04T04:40:52.591Z,5
2016-07-04T04:41:52.626Z,5
2016-07-04T04:42:52.623Z,5
2016-07-04T04:43:52.670Z,5
2016-07-04T04:44:52.658Z,5
2016-07-04T04:45:52.630Z,5
2016-07-04T04:46:52.664Z,5
2016-07-04T04:47:52.680Z,5
2016-07-04T04:48:52.685Z,5
2016-07-04T04:49:52.678Z,5
2016-07-04T04:50:52.718Z,5
2016-07-04T04:51:52.746Z,5
2016-07-04T04:52:52.725Z,5
2016-07-04T04:53:52.752Z,5
2016-07-04T04:54:52.763Z,5
2016-07-04T04:55:52.748Z,5
2016-07-04T04:56:52.784Z,5
2016-07-04T04:57:53.346Z,5
2016-07-04T04:58:53.374Z,5
2016-07-04T04:59:52.784Z,5
2016-07-04T05:00:52.775Z,5
2016-07-04T05:01:52.782Z,5
2016-07-04T05:02:52.791Z,5
2016-07-04T05:03:52.794Z,5
2016-07-04T05:04:52.786Z,5
2016-07-04T05:05:52.843Z,5
2016-07-04T05:06:52.833Z,5
2016-07-04T05:07:52.852Z,5
2016-07-04T05:08:52.847Z,5
2016-07-04T05:09:52.874Z,10
2016-07-04T05:10:52.869Z,10
2016-07-04T05:11:52.930Z,10
2016-07-04T05:12:52.910Z,10
2016-07-04T05:13:53.521Z,10
2016-07-04T05:14:52.901Z,10
2016-07-04T05:15:52.911Z,10
2016-07-04T05:16:52.913Z,10
2016-07-04T05:17:52.962Z,10
2016-07-04T05:18:52.925Z,10
2016-07-04T05:19:52.951Z,10
2016-07-04T05:20:52.944Z,10
2016-07-04T05:21:52.979Z,10
2016-07-04T05:22:52.990Z,10
2016-07-04T05:23:53.023Z,10
2016-07-04T05:24:53.006Z,10
2016-07-04T05:25:53.067Z,10
2016-07-04T05:26:53.033Z,10
2016-07-04T05:27:53.033Z,10
2016-07-04T05:28:53.048Z,10
2016-07-04T05:29:53.041Z,10
2016-07-04T05:30:53.037Z,10
2016-07-04T05:31:53.062Z,10
2016-07-04T05:32:53.081Z,10
2016-07-04T05:33:53.062Z,10
2016-07-04T05:34:53.046Z,10
2016-07-04T05:35:53.082Z,10
2016-07-04T05:36:53.821Z,10
2016-07-04T05:37:57.409Z,10
2016-07-04T05:38:56.985Z,10
2016-07-04T05:39:53.589Z,10
2016-07-04T05:40:53.173Z,10
2016-07-04T05:41:53.151Z,10
2016-07-04T05:42:53.123Z,10
2016-07-04T05:43:53.178Z,10
2016-07-04T05:44:53.164Z,15
2016-07-04T05:45:53.742Z,15
2016-07-04T05:46:53.169Z,15
2016-07-04T05:47:53.181Z,15
2016-07-04T05:48:53.197Z,15
2016-07-04T05:49:53.214Z,15
2016-07-04T05:50:53.202Z,15
2016-07-04T05:51:53.234Z,15
2016-07-04T05:52:53.222Z,15
2016-07-04T05:53:53.247Z,15
2016-07-04T05:54:53.228Z,15
2016-07-04T05:55:53.252Z,10
2016-07-04T05:56:53.284Z,10
2016-07-04T05:57:53.300Z,10
2016-07-04T05:58:53.311Z,10
2016-07-04T05:59:53.335Z,10
2016-07-04T06:00:53.279Z,10
2016-07-04T06:01:53.290Z,15
2016-07-04T06:02:53.346Z,15
2016-07-04T06:03:53.307Z,15
2016-07-04T06:04:53.343Z,15
2016-07-04T06:05:53.351Z,15
2016-07-04T06:06:53.381Z,15
2016-07-04T06:07:53.380Z,15
2016-07-04T06:08:53.360Z,15
2016-07-04T06:09:53.381Z,15
2016-07-04T06:10:53.412Z,15
2016-07-04T06:11:53.407Z,15
2016-07-04T06:12:53.391Z,15
2016-07-04T06:13:53.429Z,15
2016-07-04T06:14:53.540Z,15
2016-07-04T06:15:53.422Z,15
2016-07-04T06:16:53.443Z,15
2016-07-04T06:17:53.443Z,20
2016-07-04T06:18:53.439Z,20
2016-07-04T06:19:54.138Z,20
2016-07-04T06:20:53.491Z,20
2016-07-04T06:21:54.124Z,20
2016-07-04T06:22:53.519Z,20
2016-07-04T06:23:53.544Z,20
2016-07-04T06:24:53.523Z,20
2016-07-04T06:25:53.556Z,20
2016-07-04T06:26:53.522Z,20
2016-07-04T06:27:53.662Z,20
2016-07-04T06:28:53.556Z,20
2016-07-04T06:29:53.567Z,20
2016-07-04T06:30:53.580Z,20
2016-07-04T06:31:53.556Z,20
2016-07-04T06:32:53.587Z,20
2016-07-04T06:33:53.563Z,25
2016-07-04T06:34:53.615Z,25
2016-07-04T06:35:53.620Z,25
2016-07-04T06:36:53.652Z,25
2016-07-04T06:37:53.637Z,25
2016-07-04T06:38:53.657Z,25
2016-07-04T06:39:53.670Z,25
2016-07-04T06:40:53.650Z,25
2016-07-04T06:41:53.664Z,25
2016-07-04T06:42:53.673Z,25
2016-07-04T06:43:53.672Z,25
2016-07-04T06:44:53.706Z,25
2016-07-04T06:45:53.695Z,25
2016-07-04T06:46:53.712Z,25
2016-07-04T06:47:53.712Z,25
2016-07-04T06:48:53.729Z,25
2016-07-04T06:49:53.708Z,25
2016-07-04T06:50:53.722Z,25
2016-07-04T06:51:53.741Z,25
2016-07-04T06:52:53.752Z,25
2016-07-04T06:53:53.740Z,25
2016-07-04T06:54:53.770Z,25
2016-07-04T06:55:53.818Z,25
2016-07-04T06:56:53.797Z,25
2016-07-04T06:57:53.814Z,25
2016-07-04T06:58:53.821Z,25
2016-07-04T06:59:53.852Z,25
2016-07-04T07:00:53.807Z,25
2016-07-04T07:01:54.422Z,25
2016-07-04T07:02:53.953Z,25
2016-07-04T07:03:53.845Z,25
2016-07-04T07:04:53.864Z,30
2016-07-04T07:05:53.893Z,30
2016-07-04T07:06:53.883Z,30
2016-07-04T07:07:53.893Z,30
2016-07-04T07:08:53.875Z,35
2016-07-04T07:09:53.912Z,30
2016-07-04T07:10:53.907Z,30
2016-07-04T07:11:53.943Z,30
2016-07-04T07:12:53.938Z,30
2016-07-04T07:13:53.900Z,30
2016-07-04T07:14:53.919Z,30
2016-07-04T07:15:53.954Z,30
2016-07-04T07:16:54.563Z,35
2016-07-04T07:17:55.152Z,35
2016-07-04T07:18:53.997Z,30
2016-07-04T07:19:53.993Z,35
2016-07-04T07:20:53.994Z,35
2016-07-04T07:21:54.010Z,35
2016-07-04T07:22:54.094Z,25
2016-07-04T07:23:54.023Z,25
2016-07-04T07:24:53.999Z,20
2016-07-04T07:25:54.028Z,20
2016-07-04T07:26:54.818Z,20
2016-07-04T07:27:54.103Z,20
2016-07-04T07:28:54.661Z,25
2016-07-04T07:29:54.070Z,30
2016-07-04T07:30:54.076Z,30
2016-07-04T07:31:54.059Z,30
2016-07-04T07:32:54.087Z,35
2016-07-04T07:33:54.216Z,40
2016-07-04T07:34:54.117Z,40
2016-07-04T07:35:54.217Z,40
2016-07-04T07:36:54.125Z,40
2016-07-04T07:37:54.164Z,35
2016-07-04T07:38:54.151Z,35
2016-07-04T07:39:54.137Z,35
2016-07-04T07:40:54.744Z,35
2016-07-04T07:41:54.168Z,35
2016-07-04T07:42:54.779Z,35
2016-07-04T07:43:54.170Z,35
2016-07-04T07:44:54.885Z,35
2016-07-04T07:45:54.207Z,35
2016-07-04T07:46:54.195Z,35
2016-07-04T07:47:54.186Z,35
2016-07-04T07:48:54.254Z,35
2016-07-04T07:49:54.236Z,35
2016-07-04T07:50:54.249Z,35
2016-07-04T07:51:54.344Z,35
2016-07-04T07:52:54.233Z,35
2016-07-04T07:53:54.867Z,35
2016-07-04T07:54:54.275Z,35
2016-07-04T07:55:54.276Z,35
2016-07-04T07:56:54.292Z,35
2016-07-04T07:57:55.007Z,35
2016-07-04T07:58:54.315Z,30
2016-07-04T07:59:54.298Z,30
2016-07-04T08:00:54.336Z,35
2016-07-04T08:01:54.346Z,30
2016-07-04T08:02:54.463Z,35
2016-07-04T08:03:54.449Z,35
2016-07-04T08:04:54.413Z,35
2016-07-04T08:05:54.363Z,35
2016-07-04T08:06:54.381Z,35
2016-07-04T08:07:54.981Z,35
2016-07-04T08:08:54.475Z,35
2016-07-04T08:09:54.416Z,35
2016-07-04T08:10:54.436Z,45
2016-07-04T08:11:54.394Z,40
2016-07-04T08:12:54.430Z,35
2016-07-04T08:13:54.398Z,40
2016-07-04T08:14:54.473Z,35
2016-07-04T08:15:54.455Z,40
2016-07-04T08:16:54.683Z,30
2016-07-04T08:17:54.694Z,35
2016-07-04T08:18:55.079Z,30
2016-07-04T08:19:54.485Z,40
2016-07-04T08:20:54.515Z,35
2016-07-04T08:21:54.465Z,35
2016-07-04T08:22:54.557Z,40
2016-07-04T08:23:54.498Z,40
2016-07-04T08:24:54.515Z,35
2016-07-04T08:25:54.549Z,35
2016-07-04T08:26:54.669Z,40
2016-07-04T08:27:54.793Z,45
2016-07-04T08:28:54.547Z,50
2016-07-04T08:29:54.538Z,40
2016-07-04T08:30:54.594Z,35
2016-07-04T08:31:54.576Z,35
2016-07-04T08:32:54.599Z,40
2016-07-04T08:33:54.596Z,50
2016-07-04T08:34:54.597Z,50
2016-07-04T08:35:54.624Z,40
2016-07-04T08:36:54.643Z,40
2016-07-04T08:37:54.646Z,45
2016-07-04T08:38:54.657Z,45
2016-07-04T08:39:54.644Z,40
2016-07-04T08:40:54.711Z,40
2016-07-04T08:41:54.626Z,50
2016-07-04T08:42:55.318Z,45
2016-07-04T08:43:54.751Z,50
2016-07-04T08:45:03.215Z,45
2016-07-04T08:46:29.742Z,35
2016-07-04T08:46:54.711Z,40
2016-07-04T08:47:55.310Z,50
2016-07-04T08:48:54.710Z,50
2016-07-04T08:49:55.351Z,35
2016-07-04T08:52:01.378Z,45
2016-07-04T08:53:26.824Z,40
2016-07-04T08:54:27.439Z,55
2016-07-04T08:55:34.563Z,55
2016-07-04T08:56:28.056Z,40
2016-07-04T08:57:19.208Z,45
2016-07-04T08:57:54.758Z,40
2016-07-04T08:58:54.770Z,40
2016-07-04T09:26:06.348Z,40
2016-07-04T09:27:06.413Z,40
2016-07-04T09:28:06.342Z,40
2016-07-04T09:29:06.420Z,40
2016-07-04T09:30:06.393Z,40
2016-07-04T09:31:06.406Z,40
2016-07-04T09:32:06.474Z,45
2016-07-04T09:33:06.679Z,50
2016-07-04T09:34:06.426Z,50
2016-07-04T09:35:06.596Z,50
2016-07-04T09:36:06.451Z,50
2016-07-04T09:37:06.443Z,50
2016-07-04T09:38:06.487Z,50
2016-07-04T09:39:06.494Z,50
2016-07-04T09:40:06.585Z,45
2016-07-04T09:41:06.501Z,45
2016-07-04T09:42:06.499Z,45
2016-07-04T09:43:06.482Z,40
2016-07-04T09:44:06.547Z,40
2016-07-04T09:45:06.517Z,35
2016-07-04T09:46:06.524Z,40
2016-07-04T09:47:06.785Z,40
2016-07-04T09:48:06.528Z,40
2016-07-04T09:49:06.538Z,40
2016-07-04T09:50:06.592Z,40
2016-07-04T09:51:06.608Z,30
2016-07-04T09:52:06.666Z,40
2016-07-04T09:53:06.576Z,35
2016-07-04T09:54:06.999Z,40
2016-07-04T09:55:06.643Z,50
2016-07-04T09:56:06.658Z,55
2016-07-04T09:57:06.923Z,65
2016-07-04T09:58:06.657Z,70
2016-07-04T09:59:07.259Z,70
2016-07-04T10:00:06.632Z,70
2016-07-04T10:01:06.919Z,75
2016-07-04T10:02:06.668Z,70
2016-07-04T10:03:06.838Z,65
2016-07-04T10:04:06.673Z,75
2016-07-04T10:05:06.691Z,70
2016-07-04T10:06:07.339Z,70
2016-07-04T10:07:06.717Z,70
2016-07-04T10:08:06.971Z,70
2016-07-04T10:09:06.733Z,70
2016-07-04T10:10:07.533Z,60
2016-07-04T10:11:06.783Z,65
2016-07-04T10:12:07.532Z,75
2016-07-04T10:13:06.837Z,80
2016-07-04T10:14:06.777Z,80
2016-07-04T10:15:06.784Z,70
2016-07-04T10:16:06.788Z,75
2016-07-04T10:17:06.774Z,85
2016-07-04T10:18:06.781Z,75
2016-07-04T10:19:06.799Z,65
2016-07-04T10:20:06.816Z,70
2016-07-04T10:21:06.809Z,65
2016-07-04T10:22:06.892Z,60
2016-07-04T10:23:06.829Z,70
2016-07-04T10:24:06.839Z,55
2016-07-04T10:25:06.870Z,60
2016-07-04T10:26:06.869Z,60
2016-07-04T10:27:06.882Z,75
2016-07-04T10:28:06.999Z,65
2016-07-04T10:29:06.891Z,80
2016-07-04T10:30:06.944Z,55
2016-07-04T10:31:06.913Z,50
2016-07-04T10:32:06.909Z,55
2016-07-04T10:33:06.949Z,70
2016-07-04T10:34:06.938Z,65
2016-07-04T10:35:07.527Z,60
2016-07-04T10:36:06.980Z,60
2016-07-04T10:37:06.996Z,65
2016-07-04T10:38:07.004Z,65
2016-07-04T10:39:06.988Z,75
2016-07-04T10:40:07.589Z,75
2016-07-04T10:41:07.614Z,80
2016-07-04T10:42:07.043Z,70
2016-07-04T10:43:07.043Z,70
2016-07-04T10:44:07.041Z,75
2016-07-04T10:45:07.642Z,75
2016-07-04T10:46:07.661Z,80
2016-07-04T10:47:07.055Z,80
2016-07-04T10:48:07.094Z,70
2016-07-04T10:49:07.078Z,75
2016-07-04T10:50:07.085Z,70
2016-07-04T10:51:07.122Z,70
2016-07-04T10:52:07.110Z,65
2016-07-04T10:53:07.121Z,65
2016-07-04T10:54:07.142Z,65
2016-07-04T10:55:07.159Z,75
2016-07-04T10:56:07.141Z,75
2016-07-04T10:57:07.185Z,75
2016-07-04T10:58:07.189Z,80
2016-07-04T10:59:07.768Z,80
2016-07-04T11:00:07.194Z,65
2016-07-04T11:01:07.174Z,70
2016-07-04T11:02:07.205Z,75
2016-07-04T11:03:07.231Z,85
2016-07-04T11:04:07.243Z,80
2016-07-04T11:05:07.220Z,70
2016-07-04T11:06:07.267Z,70
2016-07-04T11:07:07.242Z,65
2016-07-04T11:08:07.852Z,65
2016-07-04T11:09:07.272Z,75
2016-07-04T11:10:07.896Z,80
2016-07-04T11:11:07.295Z,70
2016-07-04T11:12:07.335Z,70
2016-07-04T11:13:07.322Z,70
2016-07-04T11:14:07.303Z,70
2016-07-04T11:15:07.330Z,65
2016-07-04T11:16:07.350Z,70
2016-07-04T11:17:07.382Z,70
2016-07-04T11:18:07.386Z,75
2016-07-04T11:19:07.374Z,75
2016-07-04T11:20:07.367Z,85
2016-07-04T11:21:07.411Z,75
2016-07-04T11:22:07.423Z,75
2016-07-04T11:23:07.427Z,85
2016-07-04T11:24:07.413Z,85
2016-07-04T11:25:08.040Z,75
2016-07-04T11:26:07.469Z,75
2016-07-04T11:27:07.477Z,75
2016-07-04T11:28:07.424Z,70
2016-07-04T11:29:07.471Z,70
2016-07-04T11:30:07.476Z,80
2016-07-04T11:31:07.475Z,90
2016-07-04T11:32:07.486Z,70
2016-07-04T11:33:07.502Z,75
2016-07-04T11:34:07.531Z,75
2016-07-04T11:35:07.500Z,75
2016-07-04T11:36:07.513Z,75
2016-07-04T11:37:08.168Z,70
2016-07-04T11:38:08.184Z,70
2016-07-04T11:39:07.560Z,65
2016-07-04T11:40:07.584Z,70
2016-07-04T11:41:07.613Z,65
2016-07-04T11:42:07.594Z,75
2016-07-04T11:43:07.606Z,70
2016-07-04T11:44:07.592Z,65
2016-07-04T11:45:07.609Z,55
2016-07-04T11:46:07.644Z,60
2016-07-04T11:47:07.661Z,60
2016-07-04T11:48:07.620Z,60
2016-07-04T11:49:07.680Z,60
2016-07-04T11:50:07.653Z,60
2016-07-04T11:51:07.694Z,60
2016-07-04T11:52:08.268Z,60
2016-07-04T11:53:07.696Z,60
2016-07-04T11:54:07.729Z,60
2016-07-04T11:55:07.718Z,55
2016-07-04T11:56:07.726Z,60
2016-07-04T11:57:07.758Z,60
2016-07-04T11:58:07.728Z,60
2016-07-04T11:59:08.615Z,65
2016-07-04T12:00:07.766Z,60
2016-07-04T12:01:07.760Z,60
2016-07-04T12:02:07.820Z,65
2016-07-04T12:03:07.805Z,60
2016-07-04T12:04:07.777Z,65
2016-07-04T12:05:07.815Z,65
2016-07-04T12:06:07.803Z,65
2016-07-04T12:07:07.831Z,65
2016-07-04T12:08:07.831Z,65
2016-07-04T12:09:07.867Z,65
2016-07-04T12:10:07.874Z,65
2016-07-04T12:11:08.224Z,65
2016-07-04T12:12:07.885Z,65
2016-07-04T12:13:08.508Z,65
2016-07-04T12:14:07.887Z,65
2016-07-04T12:15:07.927Z,65
2016-07-04T12:16:07.924Z,65
2016-07-04T12:17:08.245Z,60
2016-07-04T12:18:07.951Z,60
2016-07-04T12:19:08.706Z,60
2016-07-04T12:20:08.272Z,60
2016-07-04T12:21:08.198Z,60
2016-07-04T12:22:07.966Z,60
2016-07-04T12:23:07.972Z,60
2016-07-04T12:24:07.983Z,60
2016-07-04T12:25:07.995Z,60
2016-07-04T12:26:08.021Z,60
2016-07-04T12:27:09.269Z,60
2016-07-04T12:28:08.044Z,65
2016-07-04T12:29:08.030Z,65
2016-07-04T12:30:08.358Z,60
2016-07-04T12:31:08.682Z,60
2016-07-04T12:32:08.114Z,65
2016-07-04T12:33:08.474Z,65
2016-07-04T12:34:08.090Z,65
2016-07-04T12:35:08.100Z,65
2016-07-04T12:36:08.089Z,65
2016-07-04T12:37:08.351Z,65
2016-07-04T12:38:08.140Z,65
2016-07-04T12:39:08.140Z,65
2016-07-04T12:40:08.160Z,60
2016-07-04T12:41:08.152Z,60
2016-07-04T12:42:08.250Z,30
2016-07-04T12:43:08.783Z,30
2016-07-04T12:44:08.199Z,60
2016-07-04T12:45:08.220Z,50
2016-07-04T12:46:23.099Z,65
2016-07-04T12:47:08.234Z,60
2016-07-04T12:48:08.346Z,60
2016-07-04T12:49:08.283Z,60
2016-07-04T12:50:08.371Z,60
2016-07-04T12:51:08.248Z,60
2016-07-04T12:52:23.174Z,60
2016-07-04T12:53:08.892Z,60
2016-07-04T12:54:23.813Z,65
2016-07-04T12:55:08.302Z,40
2016-07-04T12:56:08.682Z,40
2016-07-04T12:57:09.295Z,40
2016-07-04T12:58:08.328Z,45
2016-07-04T12:59:08.567Z,45
2016-07-04T13:00:08.391Z,40
2016-07-04T13:01:08.362Z,40
2016-07-04T13:02:08.736Z,40
2016-07-04T13:03:08.418Z,35
2016-07-04T13:04:08.536Z,30
2016-07-04T13:05:08.626Z,25
2016-07-04T13:06:08.398Z,25
2016-07-04T13:07:09.096Z,25
2016-07-04T13:08:08.447Z,25
2016-07-04T13:09:08.429Z,30
2016-07-04T13:10:08.463Z,30
2016-07-04T13:11:08.466Z,55
2016-07-04T13:12:08.744Z,50
2016-07-04T13:13:08.552Z,50
2016-07-04T13:14:08.510Z,50
2016-07-04T13:15:08.518Z,40
2016-07-04T13:16:08.770Z,50
2016-07-04T13:17:08.544Z,50
2016-07-04T13:18:08.854Z,50
2016-07-04T13:19:23.444Z,30
2016-07-04T13:20:08.581Z,30
2016-07-04T13:21:08.564Z,35
2016-07-04T13:22:08.769Z,65
2016-07-04T13:23:08.779Z,65
2016-07-04T13:24:08.584Z,60
2016-07-04T13:25:08.609Z,60
2016-07-04T13:26:08.609Z,55
2016-07-04T13:27:08.870Z,50
2016-07-04T13:28:08.635Z,50
2016-07-04T13:29:08.766Z,45
2016-07-04T13:30:08.672Z,50
2016-07-04T13:31:08.668Z,45
2016-07-04T13:32:23.570Z,30
2016-07-04T13:33:08.743Z,30
2016-07-04T13:34:09.325Z,30
2016-07-04T13:35:08.962Z,40
2016-07-04T13:36:08.703Z,30
2016-07-04T13:37:08.727Z,45
2016-07-04T13:38:09.328Z,35
2016-07-04T13:39:09.359Z,60
2016-07-04T13:40:08.805Z,35
2016-07-04T13:41:08.777Z,30
2016-07-04T13:42:08.788Z,30
2016-07-04T13:43:08.831Z,30
2016-07-04T13:44:08.821Z,30
2016-07-04T13:45:08.803Z,35
2016-07-04T13:46:08.803Z,35
2016-07-04T13:47:09.017Z,35
2016-07-04T13:48:08.852Z,30
2016-07-04T13:49:08.832Z,30
2016-07-04T13:50:08.834Z,35
2016-07-04T13:51:08.876Z,40
2016-07-04T13:52:08.922Z,35
2016-07-04T13:53:08.904Z,40
2016-07-04T13:54:08.907Z,45
2016-07-04T13:55:08.908Z,35
2016-07-04T13:56:08.942Z,50
2016-07-04T13:57:08.954Z,45
2016-07-04T13:58:08.951Z,35
2016-07-04T13:59:08.943Z,30
2016-07-04T14:00:08.942Z,30
2016-07-04T14:01:09.002Z,30
2016-07-04T14:02:08.974Z,30
2016-07-04T14:03:08.995Z,30
2016-07-04T14:04:09.016Z,30
2016-07-04T14:05:09.033Z,25
2016-07-04T14:06:09.027Z,30
2016-07-04T14:07:09.047Z,30
2016-07-04T14:08:09.050Z,50
2016-07-04T14:09:09.054Z,55
2016-07-04T14:10:09.040Z,50
2016-07-04T14:11:09.081Z,35
2016-07-04T14:12:09.118Z,45
2016-07-04T14:13:23.982Z,45
2016-07-04T14:14:09.097Z,40
2016-07-04T14:15:09.124Z,45
2016-07-04T14:16:24.006Z,40
2016-07-04T14:17:09.130Z,40
2016-07-04T14:18:09.137Z,40
2016-07-04T14:19:09.172Z,40
2016-07-04T14:20:09.202Z,40
2016-07-04T14:21:09.143Z,40
2016-07-04T14:22:09.169Z,40
2016-07-04T14:23:09.183Z,40
2016-07-04T14:24:09.226Z,40
2016-07-04T14:25:09.185Z,40
2016-07-04T14:26:09.236Z,40
2016-07-04T14:27:09.399Z,40
2016-07-04T14:28:09.253Z,45
2016-07-04T14:29:09.233Z,45
2016-07-04T14:30:09.873Z,40
2016-07-04T14:31:09.280Z,30
2016-07-04T14:32:09.287Z,40
2016-07-04T14:33:09.293Z,40
2016-07-04T14:34:09.303Z,40
2016-07-04T14:35:09.305Z,45
2016-07-04T14:36:09.269Z,25
2016-07-04T14:37:09.325Z,25
2016-07-04T14:38:09.304Z,45
2016-07-04T14:39:09.367Z,45
2016-07-04T14:40:09.368Z,45
2016-07-04T14:41:09.371Z,35
2016-07-04T14:42:09.379Z,40
2016-07-04T14:43:09.448Z,40
2016-07-04T14:44:09.384Z,40
2016-07-04T14:45:09.377Z,40
2016-07-04T14:46:09.407Z,40
2016-07-04T14:47:09.409Z,45
2016-07-04T14:48:09.471Z,45
2016-07-04T14:49:09.474Z,40
2016-07-04T14:50:09.452Z,40
2016-07-04T14:51:09.457Z,40
2016-07-04T14:52:09.453Z,40
2016-07-04T14:53:09.491Z,30
2016-07-04T14:54:09.518Z,35